createdAt,value
2022-12-08T00:40:04.527Z,10.87
2022-12-08T00:42:32.688Z,12.00
2022-12-08T00:45:00.726Z,14.83
2022-12-08T00:47:28.824Z,10.43
2022-12-08T00:49:56.914Z,9.70
2022-12-08T00:52:24.967Z,13.47
2022-12-08T00:54:53.103Z,11.30
2022-12-08T00:57:22.593Z,9.47
2022-12-08T00:59:50.860Z,9.77
2022-12-08T01:02:18.924Z,10.77
2022-12-08T01:04:47.323Z,15.43
2022-12-08T01:07:15.432Z,9.93
2022-12-08T01:09:43.842Z,10.47
2022-12-08T01:12:11.957Z,10.30
2022-12-08T01:14:41.428Z,13.03
2022-12-08T01:17:09.632Z,10.43
2022-12-08T01:19:38.970Z,14.90
2022-12-08T01:22:07.250Z,10.87
2022-12-08T01:24:36.236Z,10.13
2022-12-08T01:27:04.467Z,11.43
2022-12-08T01:29:32.546Z,10.63
2022-12-08T01:32:02.121Z,11.03
2022-12-08T01:34:30.305Z,10.77
2022-12-08T01:36:58.392Z,9.80
2022-12-08T01:39:26.489Z,12.93
2022-12-08T01:41:54.700Z,10.87
2022-12-08T01:44:54.094Z,11.07
2022-12-08T01:47:25.285Z,9.57
2022-12-08T01:49:53.396Z,12.47
2022-12-08T01:52:26.215Z,10.60
2022-12-08T01:54:58.927Z,10.63
2022-12-08T01:57:30.774Z,9.93
2022-12-08T02:00:02.733Z,12.37
2022-12-08T02:02:42.902Z,11.70
2022-12-08T02:05:11.520Z,10.57
2022-12-08T02:07:39.922Z,9.83
2022-12-08T02:10:09.175Z,12.27
2022-12-08T02:12:37.468Z,10.47
2022-12-08T02:15:07.009Z,9.97
2022-12-08T02:17:50.607Z,9.43
2022-12-08T02:20:38.922Z,11.43
2022-12-08T02:23:16.242Z,9.13
2022-12-08T02:26:04.287Z,10.10
2022-12-08T02:28:48.023Z,9.73
2022-12-08T02:31:29.732Z,9.83
2022-12-08T02:34:15.514Z,9.20
2022-12-08T02:36:54.659Z,10.03
2022-12-08T02:39:29.707Z,7.33
2022-12-08T02:42:08.118Z,7.97
2022-12-08T02:44:40.782Z,6.30
2022-12-08T02:47:13.232Z,8.23
2022-12-08T02:49:42.666Z,5.83
2022-12-08T02:52:41.930Z,7.77
2022-12-08T02:55:19.105Z,6.17
2022-12-08T02:58:01.566Z,5.63
2022-12-08T03:00:37.381Z,6.07
2022-12-08T03:03:18.457Z,7.10
2022-12-08T03:06:01.072Z,6.43
2022-12-08T03:08:36.515Z,4.83
2022-12-08T03:11:10.605Z,6.00
2022-12-08T03:13:43.634Z,6.03
2022-12-08T03:16:15.431Z,5.10
2022-12-08T03:18:49.112Z,6.07
2022-12-08T03:21:21.342Z,6.37
2022-12-08T03:23:52.685Z,5.70
2022-12-08T03:26:26.181Z,6.63
2022-12-08T03:28:54.519Z,5.53
2022-12-08T03:31:24.836Z,6.50
2022-12-08T03:33:55.732Z,5.97
2022-12-08T03:36:25.737Z,5.93
2022-12-08T03:38:55.245Z,7.50
2022-12-08T03:41:24.249Z,5.03
2022-12-08T03:43:55.005Z,6.20
2022-12-08T03:48:52.589Z,5.63
2022-12-08T03:51:20.955Z,7.23
2022-12-08T03:53:50.894Z,6.67
2022-12-08T03:56:26.349Z,6.07
2022-12-08T03:58:55.518Z,6.93
2022-12-08T04:01:24.367Z,4.83
2022-12-08T04:03:52.942Z,6.60
2022-12-08T04:06:22.143Z,6.63
2022-12-08T04:08:52.322Z,7.13
2022-12-08T04:11:20.879Z,7.97
2022-12-08T04:13:49.143Z,8.43
2022-12-08T04:16:19.360Z,7.77
2022-12-08T04:18:47.846Z,7.63
2022-12-08T04:21:16.407Z,8.40
2022-12-08T04:23:45.075Z,8.87
2022-12-08T04:26:15.316Z,8.50
2022-12-08T04:28:43.490Z,11.77
2022-12-08T04:31:11.803Z,11.27
2022-12-08T04:33:40.497Z,8.77
2022-12-08T04:36:10.186Z,9.67
2022-12-08T04:38:38.420Z,10.07
2022-12-08T04:41:06.486Z,11.97
2022-12-08T04:43:36.942Z,15.10
2022-12-08T04:46:08.145Z,10.40
2022-12-08T04:48:38.644Z,11.47
2022-12-08T04:51:07.631Z,11.67
2022-12-08T04:53:35.721Z,12.17
2022-12-08T04:56:03.930Z,12.37
2022-12-08T04:58:31.990Z,14.50
2022-12-08T05:01:01.557Z,16.43
2022-12-08T05:03:29.664Z,17.67
2022-12-08T05:06:00.157Z,15.00
2022-12-08T05:08:28.714Z,16.03
2022-12-08T05:11:03.741Z,14.77
2022-12-08T05:13:31.889Z,10.60
2022-12-08T05:16:05.988Z,13.07
2022-12-08T05:18:34.099Z,12.53
2022-12-08T05:21:02.617Z,14.70
2022-12-08T05:23:31.052Z,12.60
2022-12-08T05:25:59.365Z,16.73
2022-12-08T05:28:43.924Z,14.30
2022-12-08T05:31:15.876Z,13.77
2022-12-08T05:33:44.335Z,11.97
2022-12-08T05:36:14.326Z,17.17
2022-12-08T05:38:42.499Z,13.03
2022-12-08T05:41:14.374Z,15.00
2022-12-08T05:43:42.579Z,15.00
2022-12-08T05:46:11.255Z,21.37
2022-12-08T05:48:41.199Z,14.00
2022-12-08T05:51:17.472Z,19.93
2022-12-08T05:53:45.604Z,17.90
2022-12-08T05:56:13.693Z,21.20
2022-12-08T05:58:41.902Z,16.73
2022-12-08T06:01:20.434Z,17.00
2022-12-08T06:03:49.877Z,15.17
2022-12-08T06:06:17.954Z,20.10
2022-12-08T06:08:46.267Z,18.30
2022-12-08T06:11:19.755Z,18.80
2022-12-08T06:13:48.169Z,16.50
2022-12-08T06:16:16.439Z,14.90
2022-12-08T06:18:44.843Z,14.60
2022-12-08T06:21:16.132Z,15.00
2022-12-08T06:23:45.129Z,21.80
2022-12-08T06:26:15.138Z,19.10
2022-12-08T06:28:44.009Z,15.97
2022-12-08T06:31:14.688Z,14.37
2022-12-08T06:33:43.241Z,18.00
2022-12-08T06:36:15.037Z,17.70
2022-12-08T06:38:44.032Z,17.90
2022-12-08T06:41:13.581Z,16.43
2022-12-08T06:43:43.029Z,17.40
2022-12-08T06:46:14.082Z,19.97
2022-12-08T06:48:42.731Z,17.27
2022-12-08T06:51:12.592Z,18.70
2022-12-08T06:53:42.912Z,19.97
2022-12-08T06:56:12.019Z,17.37
2022-12-08T06:58:40.428Z,19.37
2022-12-08T07:01:10.594Z,20.27
2022-12-08T07:03:39.985Z,15.87
2022-12-08T07:06:08.640Z,17.80
2022-12-08T07:08:36.834Z,17.97
2022-12-08T07:11:09.894Z,15.70
2022-12-08T07:13:38.449Z,14.77
2022-12-08T07:16:08.421Z,17.70
2022-12-08T07:18:37.108Z,18.77
2022-12-08T07:21:06.654Z,15.13
2022-12-08T07:23:34.979Z,16.13
2022-12-08T07:26:03.601Z,17.30
2022-12-08T07:28:33.811Z,15.60
2022-12-08T07:31:02.384Z,13.60
2022-12-08T07:33:30.984Z,14.77
2022-12-08T07:36:01.271Z,15.33
2022-12-08T07:38:30.121Z,17.37
2022-12-08T07:40:58.607Z,18.33
2022-12-08T07:43:27.242Z,18.67
2022-12-08T07:45:56.826Z,12.87
2022-12-08T07:48:25.000Z,14.37
2022-12-08T07:51:00.459Z,13.37
2022-12-08T07:53:28.571Z,13.73
2022-12-08T07:55:57.155Z,14.73
2022-12-08T07:58:25.699Z,13.23
2022-12-08T08:00:54.085Z,13.73
2022-12-08T08:03:23.676Z,14.80
2022-12-08T08:05:51.883Z,12.73
2022-12-08T08:08:20.366Z,12.67
2022-12-08T08:10:48.483Z,15.67
2022-12-08T08:13:16.757Z,24.00
2022-12-08T08:15:44.894Z,18.10
2022-12-08T08:18:13.684Z,12.20
2022-12-08T08:20:43.175Z,15.87
2022-12-08T08:23:11.248Z,13.97
2022-12-08T08:25:39.333Z,15.13
2022-12-08T08:28:07.448Z,13.70
2022-12-08T08:30:35.770Z,15.90
2022-12-08T08:33:03.948Z,16.63
2022-12-08T08:35:32.083Z,18.13
2022-12-08T08:38:02.222Z,18.43
2022-12-08T08:40:30.266Z,16.07
2022-12-08T08:42:58.617Z,31.77
2022-12-08T08:45:26.733Z,15.90
2022-12-08T08:47:54.823Z,14.83
2022-12-08T08:50:23.220Z,15.20
2022-12-08T08:52:51.358Z,16.17
2022-12-08T08:55:21.116Z,10.77
2022-12-08T08:57:49.171Z,16.23
2022-12-08T09:00:18.018Z,11.80
2022-12-08T09:02:46.073Z,14.73
2022-12-08T09:05:14.372Z,12.97
2022-12-08T09:07:42.486Z,15.80
2022-12-08T09:10:11.381Z,16.67
2022-12-08T09:12:40.864Z,17.05
2022-12-08T09:15:09.332Z,12.05
2022-12-08T09:17:38.309Z,16.05
2022-12-08T09:20:08.108Z,11.57
2022-12-08T09:22:36.337Z,12.07
2022-12-08T09:25:04.603Z,15.48
2022-12-08T09:27:32.927Z,13.60
2022-12-08T09:30:02.729Z,18.15
2022-12-08T09:32:31.180Z,17.47
2022-12-08T09:34:59.268Z,12.48
2022-12-08T09:37:27.585Z,23.58
2022-12-08T09:39:55.747Z,13.25
2022-12-08T09:42:33.630Z,17.05
2022-12-08T09:45:10.083Z,15.55
2022-12-08T09:47:43.454Z,14.38
2022-12-08T09:50:16.609Z,23.17
2022-12-08T09:52:48.345Z,14.13
2022-12-08T09:55:24.623Z,14.38
2022-12-08T09:58:01.738Z,12.13
2022-12-08T10:00:32.127Z,15.13
2022-12-08T10:03:01.055Z,19.57
2022-12-08T10:05:31.245Z,24.10
2022-12-08T10:08:08.744Z,19.88
2022-12-08T10:10:41.209Z,17.95
2022-12-08T10:13:17.850Z,15.23
2022-12-08T10:15:52.835Z,15.55
2022-12-08T10:18:26.831Z,13.37
2022-12-08T10:20:58.759Z,13.97
2022-12-08T10:23:34.360Z,16.43
2022-12-08T10:26:05.339Z,18.67
2022-12-08T10:28:38.738Z,18.57
2022-12-08T10:31:17.476Z,14.07
2022-12-08T10:33:47.516Z,14.63
2022-12-08T10:36:15.717Z,9.57
2022-12-08T10:38:43.882Z,12.65
2022-12-08T10:41:17.914Z,13.83
2022-12-08T10:43:49.642Z,10.75
2022-12-08T10:46:21.052Z,12.93
2022-12-08T10:48:51.968Z,15.75
2022-12-08T10:51:30.574Z,11.77
2022-12-08T10:53:59.402Z,15.60
2022-12-08T10:56:29.639Z,15.80
2022-12-08T10:59:14.006Z,11.63
2022-12-08T11:01:47.457Z,12.13
2022-12-08T11:04:19.807Z,13.27
2022-12-08T11:06:49.662Z,12.80
2022-12-08T11:09:31.886Z,15.18
2022-12-08T11:12:01.665Z,11.30
2022-12-08T11:14:33.120Z,10.45
2022-12-08T11:17:08.185Z,9.47
2022-12-08T11:19:39.465Z,8.55
2022-12-08T11:22:23.024Z,8.88
2022-12-08T11:25:00.203Z,11.57
2022-12-08T11:27:28.570Z,8.87
2022-12-08T11:29:57.153Z,10.03
2022-12-08T11:32:27.028Z,11.47
2022-12-08T11:35:01.602Z,10.07
2022-12-08T11:37:35.213Z,10.53
2022-12-08T11:40:08.155Z,14.47
2022-12-08T11:42:52.449Z,14.15
2022-12-08T11:45:26.029Z,13.70
2022-12-08T11:48:05.124Z,14.60
2022-12-08T11:50:41.771Z,11.87
2022-12-08T11:53:17.943Z,11.83
2022-12-08T11:55:51.509Z,14.67
2022-12-08T11:58:23.793Z,12.93
2022-12-08T12:00:52.240Z,12.67
2022-12-08T12:03:30.282Z,11.27
2022-12-08T12:06:54.176Z,12.23
2022-12-08T12:09:35.682Z,13.35
2022-12-08T12:12:16.961Z,15.07
2022-12-08T12:15:16.107Z,12.85
2022-12-08T12:17:49.101Z,13.93
2022-12-08T12:20:25.313Z,27.35
2022-12-08T12:22:59.156Z,18.00
2022-12-08T12:25:28.135Z,16.98
2022-12-08T12:28:00.988Z,17.70
2022-12-08T12:30:32.858Z,12.88
2022-12-08T12:33:03.149Z,14.68
2022-12-08T12:35:36.920Z,11.30
2022-12-08T12:38:29.564Z,11.60
2022-12-08T12:41:02.210Z,12.33
2022-12-08T12:43:33.383Z,10.77
2022-12-08T12:46:40.980Z,11.52
2022-12-08T12:49:46.204Z,13.13
2022-12-08T12:52:51.579Z,11.18
2022-12-08T12:55:31.225Z,10.43
2022-12-08T12:58:04.217Z,13.97
2022-12-08T13:00:32.290Z,9.80
2022-12-08T13:03:00.617Z,8.27
2022-12-08T13:05:30.687Z,8.80
2022-12-08T13:08:02.363Z,7.60
2022-12-08T13:10:32.655Z,8.65
2022-12-08T13:13:07.387Z,7.07
2022-12-08T13:15:38.097Z,7.87
2022-12-08T13:18:07.791Z,6.57
2022-12-08T13:20:47.201Z,6.93
2022-12-08T13:23:31.123Z,6.38
2022-12-08T13:26:21.726Z,10.15
2022-12-08T13:29:15.321Z,8.15
2022-12-08T13:31:50.562Z,8.40
2022-12-08T13:34:29.457Z,8.65
2022-12-08T13:37:05.439Z,10.23
2022-12-08T13:39:50.810Z,7.82
2022-12-08T13:42:26.047Z,7.97
2022-12-08T13:52:16.039Z,8.15
2022-12-08T13:59:34.427Z,8.82
2022-12-08T14:02:05.822Z,10.15
2022-12-08T14:04:54.552Z,9.50
2022-12-08T14:07:23.494Z,9.77
2022-12-08T14:09:52.751Z,8.43
2022-12-08T14:12:25.872Z,9.18
2022-12-08T14:15:04.150Z,7.35
2022-12-08T14:17:33.246Z,6.25
2022-12-08T14:20:04.082Z,9.30
2022-12-08T14:22:34.901Z,7.57
2022-12-08T14:25:04.011Z,7.10
2022-12-08T14:27:37.119Z,7.57
2022-12-08T14:30:08.388Z,9.43
2022-12-08T14:32:40.531Z,7.33
2022-12-08T14:35:21.172Z,7.70
2022-12-08T14:37:51.643Z,12.47
2022-12-08T14:40:24.330Z,8.13
2022-12-08T14:43:06.140Z,8.37
2022-12-08T14:45:35.022Z,9.90
2022-12-08T14:48:21.854Z,9.03
2022-12-08T14:51:05.289Z,10.47
2022-12-08T14:53:39.885Z,8.00
2022-12-08T14:56:18.612Z,6.30
2022-12-08T14:58:49.009Z,7.35
2022-12-08T15:01:22.301Z,7.17
2022-12-08T15:03:51.656Z,7.13
2022-12-08T15:06:22.320Z,5.87
2022-12-08T15:08:56.285Z,7.35
2022-12-08T15:11:35.765Z,7.60
2022-12-08T15:14:05.312Z,6.60
2022-12-08T15:16:40.827Z,6.80
2022-12-08T15:19:23.295Z,6.50
2022-12-08T15:21:52.212Z,6.43
2022-12-08T15:24:22.417Z,7.80
2022-12-08T15:26:51.690Z,7.23
2022-12-08T15:29:23.899Z,8.70
2022-12-08T15:31:53.666Z,6.83
2022-12-08T15:34:22.840Z,7.70
2022-12-08T15:36:53.072Z,9.57
2022-12-08T15:39:34.117Z,10.27
2022-12-08T15:42:03.497Z,8.40
2022-12-08T15:44:33.526Z,8.30
2022-12-08T15:47:02.377Z,8.00
2022-12-08T15:49:30.625Z,8.23
2022-12-08T15:52:10.706Z,8.13
2022-12-08T15:54:39.783Z,8.70
2022-12-08T15:57:19.488Z,9.70
2022-12-08T15:59:52.756Z,7.43
2022-12-08T16:02:23.762Z,8.00
2022-12-08T16:05:40.305Z,8.67
2022-12-08T16:07:42.323Z,7.07
2022-12-08T16:10:16.359Z,8.07
2022-12-08T16:15:59.815Z,9.83
2022-12-08T16:18:32.549Z,8.07
2022-12-08T16:21:16.904Z,9.93
2022-12-08T16:23:49.013Z,7.80
2022-12-08T16:27:01.248Z,8.37
2022-12-08T16:29:08.717Z,8.97
2022-12-08T16:31:38.552Z,8.03
2022-12-08T16:34:06.927Z,8.77
2022-12-08T16:36:35.271Z,8.10
2022-12-08T16:39:03.616Z,8.90
2022-12-08T16:41:49.113Z,8.73
2022-12-08T16:44:17.198Z,10.73
2022-12-08T16:46:46.798Z,8.57
2022-12-08T16:49:15.737Z,8.67
2022-12-08T16:51:44.763Z,8.63
2022-12-08T16:54:12.895Z,9.93
2022-12-08T16:56:42.992Z,7.90
2022-12-08T16:59:11.164Z,8.87
2022-12-08T17:01:39.503Z,8.63
2022-12-08T17:06:57.997Z,8.27
2022-12-08T17:09:26.483Z,7.10
2022-12-08T17:11:58.798Z,7.97
2022-12-08T17:14:30.016Z,9.77
2022-12-08T17:16:58.252Z,7.50
2022-12-08T17:19:27.789Z,9.13
2022-12-08T17:21:56.180Z,8.97
2022-12-08T17:24:25.085Z,8.77
2022-12-08T17:26:53.176Z,9.17
2022-12-08T17:29:21.298Z,9.37
2022-12-08T17:31:49.529Z,11.00
2022-12-08T17:34:17.798Z,11.60
2022-12-08T17:36:47.348Z,10.00
2022-12-08T17:39:18.775Z,9.37
2022-12-08T17:41:48.042Z,8.10
2022-12-08T17:44:18.303Z,8.97
2022-12-08T17:46:52.216Z,10.00
2022-12-08T17:49:23.387Z,10.43
2022-12-08T17:51:55.246Z,10.90
2022-12-08T17:54:23.433Z,10.77
2022-12-08T17:56:51.840Z,11.53
2022-12-08T17:59:20.184Z,10.40
2022-12-08T18:01:48.517Z,12.40
2022-12-08T18:04:16.955Z,9.97
2022-12-08T18:06:45.115Z,12.03
2022-12-08T18:09:15.748Z,11.93
2022-12-08T18:11:46.106Z,11.40
2022-12-08T18:14:15.407Z,11.97
2022-12-08T18:16:45.339Z,11.90
2022-12-08T18:19:14.879Z,12.47
2022-12-08T18:21:44.008Z,11.50
2022-12-08T18:24:18.872Z,15.27
2022-12-08T18:26:47.241Z,13.70
2022-12-08T18:29:15.749Z,12.67
2022-12-08T18:31:43.894Z,11.63
2022-12-08T18:34:12.014Z,13.87
2022-12-08T18:36:40.386Z,12.47
2022-12-08T18:39:11.020Z,13.80
2022-12-08T18:41:40.836Z,13.03
2022-12-08T18:44:09.068Z,14.10
2022-12-08T18:46:37.347Z,15.17
2022-12-08T18:49:05.576Z,10.93
2022-12-08T18:51:33.727Z,10.10
2022-12-08T18:54:01.869Z,12.57
2022-12-08T18:56:32.110Z,13.33
2022-12-08T18:59:04.258Z,13.97
2022-12-08T19:01:33.622Z,11.00
2022-12-08T19:06:51.362Z,11.03
2022-12-08T19:09:19.920Z,12.30
2022-12-08T19:11:48.217Z,9.67
2022-12-08T19:14:20.173Z,11.37
2022-12-08T19:16:52.910Z,12.60
2022-12-08T19:19:21.574Z,12.60
2022-12-08T19:21:49.725Z,10.33
2022-12-08T19:24:17.918Z,11.50
2022-12-08T19:26:46.149Z,11.53
2022-12-08T19:29:14.518Z,11.10
2022-12-08T19:31:44.415Z,13.17
2022-12-08T19:34:14.745Z,11.77
2022-12-08T19:36:43.818Z,12.03
2022-12-08T19:39:45.381Z,9.53
2022-12-08T19:42:33.509Z,10.47
2022-12-08T19:45:07.009Z,10.03
2022-12-08T19:47:36.852Z,11.80
2022-12-08T19:50:20.257Z,12.50
2022-12-08T19:52:48.393Z,14.87
2022-12-08T19:55:17.006Z,14.33
2022-12-08T19:57:45.119Z,12.47
2022-12-08T20:04:28.604Z,13.87
2022-12-08T20:06:58.109Z,14.73
2022-12-08T20:09:26.570Z,13.47
2022-12-08T20:11:55.544Z,14.50
2022-12-08T20:14:24.210Z,12.50
2022-12-08T20:16:52.787Z,10.77
2022-12-08T20:19:21.130Z,11.93
2022-12-08T20:21:51.196Z,12.93
2022-12-08T20:24:19.831Z,12.63
2022-12-08T20:26:47.948Z,12.80
2022-12-08T20:29:16.988Z,12.63
2022-12-08T20:31:45.295Z,14.47
2022-12-08T20:34:15.214Z,14.90
2022-12-08T20:36:43.615Z,15.10
2022-12-08T20:39:14.700Z,12.03
2022-12-08T20:41:43.126Z,10.23
2022-12-08T20:44:12.384Z,12.40
2022-12-08T20:46:46.284Z,12.03
2022-12-08T20:49:17.353Z,12.80
2022-12-08T20:51:46.397Z,17.10
2022-12-08T20:54:16.319Z,12.90
2022-12-08T20:56:48.394Z,12.00
2022-12-08T20:59:18.145Z,13.20
2022-12-08T21:01:46.515Z,13.07
2022-12-08T21:04:15.069Z,12.47
2022-12-08T21:06:43.722Z,11.27
2022-12-08T21:09:12.518Z,12.87
2022-12-08T21:11:42.143Z,12.97
2022-12-08T21:14:10.826Z,12.23
2022-12-08T21:16:39.648Z,11.53
2022-12-08T21:19:08.397Z,13.50
2022-12-08T21:21:36.812Z,13.67
2022-12-08T21:24:05.743Z,13.17
2022-12-08T21:26:34.153Z,13.63
2022-12-08T21:29:03.788Z,12.40
2022-12-08T21:31:33.397Z,12.97
2022-12-08T21:34:03.489Z,13.43
2022-12-08T21:36:31.989Z,15.70
2022-12-08T21:39:02.421Z,16.13
2022-12-08T21:41:49.121Z,15.83
2022-12-08T21:44:20.114Z,14.27
2022-12-08T21:46:48.800Z,15.73
2022-12-08T21:49:17.667Z,15.97
2022-12-08T21:51:45.927Z,15.70
2022-12-08T21:54:18.770Z,13.47
2022-12-08T21:56:50.542Z,14.77
2022-12-08T21:59:20.861Z,15.83
2022-12-08T22:01:49.414Z,14.80
2022-12-08T22:04:19.513Z,16.13
2022-12-08T22:06:48.103Z,14.83
2022-12-08T22:09:16.434Z,16.43
2022-12-08T22:11:45.258Z,15.13
2022-12-08T22:14:15.099Z,16.40
2022-12-08T22:16:45.367Z,18.00
2022-12-08T22:19:13.926Z,15.83
2022-12-08T22:21:42.421Z,14.37
2022-12-08T22:24:11.098Z,14.37
2022-12-08T22:26:39.740Z,13.60
2022-12-08T22:29:08.081Z,16.50
2022-12-08T22:31:37.071Z,17.37
2022-12-08T22:34:06.915Z,14.07
2022-12-08T22:36:35.643Z,14.70
2022-12-08T22:39:05.338Z,14.10
2022-12-08T22:41:34.127Z,14.57
2022-12-08T22:44:02.294Z,14.83
2022-12-08T22:46:31.644Z,13.40
2022-12-08T22:48:59.866Z,14.80
2022-12-08T22:51:29.496Z,14.47
2022-12-08T22:53:58.109Z,13.17
2022-12-08T22:56:26.488Z,13.53
2022-12-08T22:58:54.757Z,14.37
2022-12-08T23:01:25.562Z,14.10
2022-12-08T23:03:54.087Z,15.27
2022-12-08T23:06:22.669Z,16.07
2022-12-08T23:08:52.981Z,14.20
2022-12-08T23:11:22.748Z,12.27
2022-12-08T23:13:51.116Z,13.23
2022-12-08T23:16:19.770Z,18.17
2022-12-08T23:18:48.385Z,15.73
2022-12-08T23:21:18.557Z,15.37
2022-12-08T23:23:47.245Z,14.23
2022-12-08T23:26:22.445Z,14.97
2022-12-08T23:28:51.215Z,16.30
2022-12-08T23:31:20.092Z,14.13
2022-12-08T23:33:48.787Z,14.50
2022-12-08T23:36:18.358Z,14.17
2022-12-08T23:38:47.282Z,16.97
2022-12-08T23:41:16.802Z,16.77
2022-12-08T23:43:47.383Z,14.70
2022-12-08T23:46:17.114Z,15.63
2022-12-08T23:48:45.988Z,14.03
2022-12-08T23:51:14.635Z,15.93
2022-12-08T23:53:43.615Z,15.30
2022-12-08T23:56:14.998Z,14.93
2022-12-08T23:58:44.220Z,15.93
